Time;durP1;ratioP1;P1;durP2;ratioP2;P2;SDS_P1;SDS_P2;PMS_P1;PMS_P2;Temp;Humidity;BMP_temperature;BMP_pressure;BME280_temperature;BME280_humidity;BME280_pressure;Samples;Min_cycle;Max_cycle;Signal;HPM_P1;HPM_P2
2022/01/15 00:00:35;;;;;;;79.93;27.23;;;;;;;;;;5114176;28;20198;-64
2022/01/15 00:03:03;;;;;;;72.30;26.67;;;;;;;;;;5114248;28;20222;-64
2022/01/15 00:05:31;;;;;;;66.32;24.83;;;;;;;;;;5113768;28;20228;-65
2022/01/15 00:07:58;;;;;;;74.15;25.23;;;;;;;;;;5113747;28;20187;-65
2022/01/15 00:10:27;;;;;;;47.50;23.85;;;;;;;;;;5114030;28;20229;-64
2022/01/15 00:12:55;;;;;;;54.03;24.25;;;;;;;;;;5114144;28;20651;-64
2022/01/15 00:15:27;;;;;;;62.13;24.67;;;;;;;;;;5114140;28;20290;-64
2022/01/15 00:17:59;;;;;;;62.08;25.98;;;;;;;;;;5114997;28;20271;-64
2022/01/15 00:20:27;;;;;;;58.92;25.67;;;;;;;;;;5114686;28;20188;-64
2022/01/15 00:22:55;;;;;;;59.72;26.05;;;;;;;;;;5114501;28;20320;-64
2022/01/15 00:25:23;;;;;;;63.80;25.90;;;;;;;;;;5114442;28;20185;-65
2022/01/15 00:27:51;;;;;;;60.05;25.73;;;;;;;;;;5114641;28;20192;-65
2022/01/15 00:30:18;;;;;;;63.55;26.52;;;;;;;;;;5115131;28;20233;-64
2022/01/15 00:32:47;;;;;;;63.10;24.52;;;;;;;;;;5115162;28;20700;-64
2022/01/15 00:35:15;;;;;;;65.28;26.38;;;;;;;;;;5115274;28;20227;-64
2022/01/15 00:37:42;;;;;;;65.40;25.02;;;;;;;;;;5118280;28;20198;-65
2022/01/15 00:40:11;;;;;;;58.03;26.02;;;;;;;;;;5118198;28;20281;-65
2022/01/15 00:42:39;;;;;;;60.90;24.45;;;;;;;;;;5117958;28;20256;-65
2022/01/15 00:45:10;;;;;;;47.20;22.83;;;;;;;;;;5117560;28;20190;-64
2022/01/15 00:47:37;;;;;;;59.88;25.27;;;;;;;;;;5117486;28;20188;-65
2022/01/15 00:50:07;;;;;;;64.65;26.40;;;;;;;;;;5117201;28;20281;-64
2022/01/15 00:52:34;;;;;;;65.47;25.17;;;;;;;;;;5117060;28;20352;-65
2022/01/15 00:55:02;;;;;;;67.97;24.30;;;;;;;;;;5117314;28;20535;-64
2022/01/15 00:57:29;;;;;;;59.15;24.08;;;;;;;;;;5116943;28;20282;-65
2022/01/15 00:59:56;;;;;;;60.28;26.20;;;;;;;;;;5117273;28;20274;-64
2022/01/15 01:02:23;;;;;;;72.13;25.00;;;;;;;;;;5116668;28;20226;-65
2022/01/15 01:04:51;;;;;;;73.78;26.27;;;;;;;;;;5117489;28;20310;-64
2022/01/15 01:07:19;;;;;;;70.75;27.10;;;;;;;;;;5116781;28;20195;-64
2022/01/15 01:10:02;;;;;;;78.47;28.35;;;;;;;;;;5116733;28;20236;-64
2022/01/15 01:12:44;;;;;;;63.88;26.00;;;;;;;;;;5117391;28;20191;-64
2022/01/15 01:20:57;;;;;;;54.50;23.00;;;;;;;;;;5116850;28;20534;-64
2022/01/15 01:23:25;;;;;;;67.20;24.15;;;;;;;;;;5116930;28;20264;-65
2022/01/15 01:25:58;;;;;;;61.63;23.75;;;;;;;;;;5116807;28;20191;-64
2022/01/15 01:28:30;;;;;;;52.15;23.85;;;;;;;;;;5117232;28;20601;-65
2022/01/15 01:31:02;;;;;;;60.25;25.70;;;;;;;;;;5116672;28;20546;-65
2022/01/15 01:33:34;;;;;;;58.42;24.92;;;;;;;;;;5116703;28;20197;-65
2022/01/15 01:36:13;;;;;;;59.88;25.58;;;;;;;;;;5116403;28;20569;-65
2022/01/15 01:38:49;;;;;;;62.83;26.10;;;;;;;;;;5116519;28;20184;-65
2022/01/15 01:41:19;;;;;;;77.50;26.38;;;;;;;;;;5116553;28;20183;-65
2022/01/15 01:43:51;;;;;;;64.97;24.33;;;;;;;;;;5116692;28;20188;-65
2022/01/15 01:46:32;;;;;;;69.65;26.80;;;;;;;;;;5116585;28;20176;-65
2022/01/15 01:49:01;;;;;;;70.60;25.38;;;;;;;;;;5116448;28;20179;-64
2022/01/15 01:51:31;;;;;;;76.43;25.92;;;;;;;;;;5116240;28;20593;-64
2022/01/15 01:54:00;;;;;;;69.30;26.65;;;;;;;;;;5116164;28;20222;-65
2022/01/15 01:56:28;;;;;;;70.57;29.63;;;;;;;;;;5116228;28;20278;-65
2022/01/15 01:58:55;;;;;;;77.38;28.25;;;;;;;;;;5116164;28;20189;-66
2022/01/15 02:01:22;;;;;;;79.88;26.33;;;;;;;;;;5116109;28;20230;-65
2022/01/15 02:03:50;;;;;;;91.00;28.25;;;;;;;;;;5115982;28;20314;-66
2022/01/15 02:06:17;;;;;;;75.93;27.23;;;;;;;;;;5116135;28;20193;-65
2022/01/15 02:08:45;;;;;;;71.30;25.33;;;;;;;;;;5115624;28;20191;-65
2022/01/15 02:11:14;;;;;;;78.03;25.85;;;;;;;;;;5115965;28;20226;-65
2022/01/15 02:13:41;;;;;;;72.45;27.60;;;;;;;;;;5115977;28;20541;-65
2022/01/15 02:16:09;;;;;;;74.88;27.30;;;;;;;;;;5115387;28;20286;-65
2022/01/15 02:18:37;;;;;;;82.72;29.30;;;;;;;;;;5115932;28;20273;-64
2022/01/15 02:23:56;;;;;;;60.30;25.75;;;;;;;;;;5057861;28;20190;-65
2022/01/15 02:26:24;;;;;;;74.63;26.38;;;;;;;;;;5116081;28;20183;-65
2022/01/15 02:28:56;;;;;;;81.55;30.08;;;;;;;;;;5115710;28;20281;-66
2022/01/15 02:31:23;;;;;;;69.18;25.35;;;;;;;;;;5115297;28;20257;-65
2022/01/15 02:33:51;;;;;;;74.78;26.88;;;;;;;;;;5115820;28;20239;-65
2022/01/15 02:36:21;;;;;;;72.15;28.13;;;;;;;;;;5115548;28;20552;-65
2022/01/15 02:38:49;;;;;;;61.75;26.13;;;;;;;;;;5115434;28;20228;-65
2022/01/15 02:41:16;;;;;;;71.70;26.65;;;;;;;;;;5115887;28;20274;-66
2022/01/15 02:43:43;;;;;;;64.18;26.05;;;;;;;;;;5114856;28;20315;-65
2022/01/15 02:46:33;;;;;;;64.90;26.05;;;;;;;;;;5115148;28;20277;-65
2022/01/15 02:49:01;;;;;;;66.13;25.45;;;;;;;;;;5115292;28;20180;-65
2022/01/15 02:51:31;;;;;;;73.45;28.48;;;;;;;;;;5115247;28;20605;-65
2022/01/15 02:53:58;;;;;;;67.30;26.85;;;;;;;;;;5114972;28;20285;-65
2022/01/15 02:56:25;;;;;;;91.40;27.02;;;;;;;;;;5115059;28;20222;-65
2022/01/15 02:58:52;;;;;;;92.47;26.75;;;;;;;;;;5114168;28;20188;-65
2022/01/15 03:01:20;;;;;;;74.80;26.90;;;;;;;;;;5114876;28;20279;-66
2022/01/15 03:03:47;;;;;;;71.35;26.15;;;;;;;;;;5114148;28;20268;-66
2022/01/15 03:06:15;;;;;;;60.53;26.63;;;;;;;;;;5114431;28;20282;-65
2022/01/15 03:08:44;;;;;;;65.65;26.23;;;;;;;;;;5114475;28;20248;-65
2022/01/15 03:11:12;;;;;;;66.50;23.80;;;;;;;;;;5114958;28;20223;-65
2022/01/15 03:13:40;;;;;;;66.10;26.33;;;;;;;;;;5115430;28;20202;-65
2022/01/15 03:16:08;;;;;;;76.28;27.90;;;;;;;;;;5114288;28;20285;-65
2022/01/15 03:18:35;;;;;;;77.18;27.38;;;;;;;;;;5114556;28;20282;-65
2022/01/15 03:21:03;;;;;;;64.97;26.27;;;;;;;;;;5114569;28;20197;-65
2022/01/15 03:23:30;;;;;;;73.82;26.52;;;;;;;;;;5114451;28;20297;-64
2022/01/15 03:25:59;;;;;;;79.90;26.42;;;;;;;;;;5114124;28;20285;-64
2022/01/15 03:28:26;;;;;;;81.50;27.17;;;;;;;;;;5114139;28;20191;-65
2022/01/15 03:30:54;;;;;;;79.45;26.80;;;;;;;;;;5114404;28;20305;-66
2022/01/15 03:33:21;;;;;;;66.32;24.50;;;;;;;;;;5114175;28;20287;-65
2022/01/15 03:35:48;;;;;;;74.97;26.92;;;;;;;;;;5114404;28;20242;-65
2022/01/15 03:38:16;;;;;;;75.80;27.45;;;;;;;;;;5114287;28;20282;-65
2022/01/15 03:40:43;;;;;;;72.95;27.20;;;;;;;;;;5113962;28;20192;-65
2022/01/15 03:43:11;;;;;;;83.18;27.85;;;;;;;;;;5114986;28;20302;-65
2022/01/15 03:45:39;;;;;;;56.47;25.13;;;;;;;;;;5114254;28;20278;-65
2022/01/15 03:48:06;;;;;;;60.10;24.58;;;;;;;;;;5113824;28;20279;-66
2022/01/15 03:50:34;;;;;;;69.65;27.17;;;;;;;;;;5114130;28;20294;-65
2022/01/15 03:53:01;;;;;;;56.83;26.20;;;;;;;;;;5113840;28;20285;-66
2022/01/15 03:55:28;;;;;;;68.82;26.05;;;;;;;;;;5114348;28;20267;-65
2022/01/15 03:57:55;;;;;;;78.32;27.08;;;;;;;;;;5113720;28;20283;-65
2022/01/15 04:00:26;;;;;;;61.40;24.58;;;;;;;;;;5114029;28;20243;-65
2022/01/15 04:02:53;;;;;;;61.35;25.00;;;;;;;;;;5113736;28;20265;-65
2022/01/15 04:05:21;;;;;;;56.45;24.95;;;;;;;;;;5114180;28;20278;-65
2022/01/15 04:07:48;;;;;;;65.97;27.95;;;;;;;;;;5113939;28;20283;-65
2022/01/15 04:10:16;;;;;;;73.60;26.08;;;;;;;;;;5114912;28;20275;-66
2022/01/15 04:12:43;;;;;;;62.08;25.45;;;;;;;;;;5117833;28;20748;-66
2022/01/15 04:15:13;;;;;;;61.60;25.90;;;;;;;;;;5118408;28;20223;-66
2022/01/15 04:17:42;;;;;;;70.05;26.27;;;;;;;;;;5118426;28;20190;-65
2022/01/15 04:20:09;;;;;;;69.75;25.67;;;;;;;;;;5119308;28;20190;-65
2022/01/15 04:22:37;;;;;;;69.70;26.33;;;;;;;;;;5117728;28;20261;-65
2022/01/15 04:25:04;;;;;;;76.25;27.80;;;;;;;;;;5117947;28;20279;-65
2022/01/15 04:27:32;;;;;;;83.28;27.20;;;;;;;;;;5117950;28;20187;-65
2022/01/15 04:30:02;;;;;;;62.25;23.20;;;;;;;;;;5117880;28;20607;-65
2022/01/15 04:32:30;;;;;;;73.75;24.88;;;;;;;;;;5117600;28;20625;-65
2022/01/15 04:34:59;;;;;;;71.90;27.88;;;;;;;;;;5117418;28;20186;-65
2022/01/15 04:37:35;;;;;;;63.63;27.35;;;;;;;;;;5117832;28;20202;-65
2022/01/15 04:40:02;;;;;;;67.20;25.17;;;;;;;;;;5117502;28;20760;-65
2022/01/15 04:42:30;;;;;;;70.15;26.27;;;;;;;;;;5117203;28;20310;-65
2022/01/15 04:44:57;;;;;;;85.82;26.40;;;;;;;;;;5117232;28;20187;-66
2022/01/15 04:47:25;;;;;;;64.05;24.77;;;;;;;;;;5117535;28;20594;-66
2022/01/15 04:49:54;;;;;;;65.93;25.80;;;;;;;;;;5117565;28;20283;-65
2022/01/15 04:52:23;;;;;;;76.90;25.70;;;;;;;;;;5117084;28;20231;-66
2022/01/15 04:54:50;;;;;;;70.32;25.40;;;;;;;;;;5117334;28;20198;-66
2022/01/15 04:57:17;;;;;;;62.70;24.52;;;;;;;;;;5117312;28;20609;-65
2022/01/15 04:59:45;;;;;;;62.22;22.90;;;;;;;;;;5117086;28;20544;-66
2022/01/15 05:02:12;;;;;;;57.58;24.17;;;;;;;;;;5117651;28;20278;-65
2022/01/15 05:04:39;;;;;;;57.90;24.63;;;;;;;;;;5116334;28;20317;-65
2022/01/15 05:07:06;;;;;;;73.35;24.42;;;;;;;;;;5116024;28;20636;-66
2022/01/15 05:09:35;;;;;;;61.28;26.90;;;;;;;;;;5115797;28;20186;-66
2022/01/15 05:12:08;;;;;;;59.50;24.23;;;;;;;;;;5116075;28;20187;-66
2022/01/15 05:14:35;;;;;;;77.47;28.10;;;;;;;;;;5116398;28;20188;-66
2022/01/15 05:17:03;;;;;;;75.35;29.02;;;;;;;;;;5115770;28;20296;-66
2022/01/15 05:19:30;;;;;;;74.22;27.77;;;;;;;;;;5115633;28;20282;-66
2022/01/15 05:21:58;;;;;;;74.45;28.75;;;;;;;;;;5115477;28;20279;-65
2022/01/15 05:24:27;;;;;;;69.40;26.42;;;;;;;;;;5115522;28;20234;-65
2022/01/15 05:26:56;;;;;;;82.15;29.55;;;;;;;;;;5115590;28;20220;-65
2022/01/15 05:29:23;;;;;;;86.90;27.27;;;;;;;;;;5116098;28;20223;-66
2022/01/15 05:31:50;;;;;;;79.05;28.85;;;;;;;;;;5114970;28;20278;-65
2022/01/15 05:34:17;;;;;;;93.78;28.83;;;;;;;;;;5115061;28;20295;-67
2022/01/15 05:36:45;;;;;;;90.15;30.67;;;;;;;;;;5115100;28;20692;-66
2022/01/15 05:39:12;;;;;;;81.45;29.10;;;;;;;;;;5114234;28;20201;-66
2022/01/15 05:41:40;;;;;;;80.85;28.85;;;;;;;;;;5114564;28;20537;-67
2022/01/15 05:44:09;;;;;;;86.40;29.95;;;;;;;;;;5114863;28;20211;-65
2022/01/15 05:46:36;;;;;;;85.03;28.77;;;;;;;;;;5115029;28;20235;-65
2022/01/15 05:49:04;;;;;;;76.32;28.48;;;;;;;;;;5114729;28;20202;-65
2022/01/15 05:51:31;;;;;;;69.15;28.65;;;;;;;;;;5115020;28;20644;-65
2022/01/15 05:53:59;;;;;;;77.70;27.35;;;;;;;;;;5114825;28;20236;-65
2022/01/15 05:56:26;;;;;;;83.57;26.70;;;;;;;;;;5115096;28;20549;-65
2022/01/15 05:58:53;;;;;;;78.38;28.08;;;;;;;;;;5114718;28;20226;-65
2022/01/15 06:01:22;;;;;;;64.47;26.48;;;;;;;;;;5115057;28;20274;-65
2022/01/15 06:03:50;;;;;;;83.60;28.20;;;;;;;;;;5075718;28;1110828;-66
2022/01/15 06:06:17;;;;;;;75.15;28.13;;;;;;;;;;5116306;28;20192;-65
2022/01/15 06:08:44;;;;;;;74.15;26.08;;;;;;;;;;5115443;28;20279;-66
2022/01/15 06:11:17;;;;;;;80.97;27.08;;;;;;;;;;5115848;28;20213;-65
2022/01/15 06:13:44;;;;;;;69.45;26.05;;;;;;;;;;5116424;28;20187;-66
2022/01/15 06:16:11;;;;;;;66.20;27.58;;;;;;;;;;5115523;28;20306;-66
2022/01/15 06:18:40;;;;;;;58.63;23.08;;;;;;;;;;5115800;28;20278;-66
2022/01/15 06:21:07;;;;;;;48.72;23.27;;;;;;;;;;5115430;28;20279;-66
2022/01/15 06:23:34;;;;;;;56.42;24.27;;;;;;;;;;5115499;28;20215;-66
2022/01/15 06:26:01;;;;;;;59.38;25.23;;;;;;;;;;5115268;28;20276;-65
2022/01/15 06:28:29;;;;;;;48.15;21.25;;;;;;;;;;5115339;28;20353;-66
2022/01/15 06:30:56;;;;;;;44.38;20.35;;;;;;;;;;5115502;28;20222;-66
2022/01/15 06:33:23;;;;;;;40.83;21.88;;;;;;;;;;5114786;28;20281;-66
2022/01/15 06:35:52;;;;;;;48.13;19.27;;;;;;;;;;5115087;28;20281;-66
2022/01/15 06:38:19;;;;;;;47.70;19.80;;;;;;;;;;5114877;28;20279;-65
2022/01/15 06:40:46;;;;;;;39.08;18.77;;;;;;;;;;5115726;28;20230;-66
2022/01/15 06:43:13;;;;;;;45.30;18.77;;;;;;;;;;5115173;28;20260;-66
2022/01/15 06:45:41;;;;;;;41.67;18.92;;;;;;;;;;5115084;28;20192;-66
2022/01/15 06:48:08;;;;;;;41.00;18.10;;;;;;;;;;5115080;28;20237;-66
2022/01/15 06:50:37;;;;;;;38.85;19.00;;;;;;;;;;5114781;28;20675;-66
2022/01/15 06:53:06;;;;;;;39.83;17.00;;;;;;;;;;5115110;28;20280;-67
2022/01/15 06:55:33;;;;;;;39.15;19.00;;;;;;;;;;5114676;28;20285;-67
2022/01/15 06:58:00;;;;;;;36.30;17.95;;;;;;;;;;5114923;28;20194;-67
2022/01/15 07:00:28;;;;;;;37.22;16.17;;;;;;;;;;5115075;28;20222;-66
2022/01/15 07:02:55;;;;;;;44.25;19.00;;;;;;;;;;5114722;28;20526;-66
2022/01/15 07:05:22;;;;;;;45.75;18.67;;;;;;;;;;5114503;28;20230;-67
2022/01/15 07:07:49;;;;;;;40.55;19.80;;;;;;;;;;5114783;28;20224;-66
2022/01/15 07:10:18;;;;;;;36.45;19.30;;;;;;;;;;5114602;28;20223;-67
2022/01/15 07:12:45;;;;;;;35.88;17.17;;;;;;;;;;5115082;28;20222;-65
2022/01/15 07:15:13;;;;;;;35.83;16.08;;;;;;;;;;5114255;28;20198;-66
2022/01/15 07:17:43;;;;;;;43.25;19.55;;;;;;;;;;5114587;28;20235;-66
2022/01/15 07:20:11;;;;;;;32.95;17.55;;;;;;;;;;5114356;28;20666;-66
2022/01/15 07:22:39;;;;;;;37.85;19.17;;;;;;;;;;5115277;28;20274;-66
2022/01/15 07:25:07;;;;;;;43.75;17.70;;;;;;;;;;5114126;28;20688;-66
2022/01/15 07:27:35;;;;;;;42.63;18.98;;;;;;;;;;5114155;28;20720;-66
2022/01/15 07:30:03;;;;;;;33.42;18.02;;;;;;;;;;5114078;28;20214;-66
2022/01/15 07:32:30;;;;;;;30.00;17.48;;;;;;;;;;5113918;28;20191;-66
2022/01/15 07:34:58;;;;;;;35.92;17.45;;;;;;;;;;5114636;28;20283;-66
2022/01/15 07:37:25;;;;;;;33.15;16.63;;;;;;;;;;5114256;28;20291;-67
2022/01/15 07:39:53;;;;;;;33.10;16.60;;;;;;;;;;5114245;28;20279;-66
2022/01/15 07:42:20;;;;;;;29.70;16.23;;;;;;;;;;5114736;28;20190;-65
2022/01/15 07:44:49;;;;;;;37.97;16.83;;;;;;;;;;5114051;28;20253;-66
2022/01/15 07:47:16;;;;;;;35.90;16.73;;;;;;;;;;5114154;28;20296;-67
2022/01/15 07:49:43;;;;;;;30.67;15.50;;;;;;;;;;5114159;28;20632;-66
2022/01/15 07:52:11;;;;;;;33.25;15.60;;;;;;;;;;5113791;28;20312;-66
2022/01/15 07:54:38;;;;;;;30.25;16.10;;;;;;;;;;5113725;28;20234;-67
2022/01/15 07:57:05;;;;;;;28.95;16.05;;;;;;;;;;5114168;28;20227;-66
2022/01/15 07:59:33;;;;;;;33.30;15.55;;;;;;;;;;5113733;28;20283;-66
2022/01/15 08:02:02;;;;;;;32.17;17.52;;;;;;;;;;5113849;28;20275;-67
2022/01/15 08:04:29;;;;;;;34.38;18.63;;;;;;;;;;5113502;28;20267;-67
2022/01/15 08:06:56;;;;;;;31.23;17.33;;;;;;;;;;5113943;28;20619;-67
2022/01/15 08:09:23;;;;;;;36.63;17.40;;;;;;;;;;5113939;28;20287;-66
2022/01/15 08:11:50;;;;;;;32.88;15.65;;;;;;;;;;5113953;28;20303;-67
2022/01/15 08:14:18;;;;;;;38.58;16.08;;;;;;;;;;5113513;28;20291;-66
2022/01/15 08:16:45;;;;;;;31.80;15.30;;;;;;;;;;5113905;28;20191;-67
2022/01/15 08:19:13;;;;;;;26.27;13.55;;;;;;;;;;5113890;28;20220;-67
2022/01/15 08:21:41;;;;;;;30.38;14.80;;;;;;;;;;5113686;28;20222;-70
2022/01/15 08:24:10;;;;;;;24.33;12.95;;;;;;;;;;5113690;28;20298;-65
2022/01/15 08:26:37;;;;;;;23.85;14.73;;;;;;;;;;5113428;28;20190;-66
2022/01/15 08:29:05;;;;;;;28.10;14.38;;;;;;;;;;5113732;28;20278;-66
2022/01/15 08:31:32;;;;;;;23.67;14.10;;;;;;;;;;5113767;28;20279;-66
2022/01/15 08:33:59;;;;;;;27.73;14.50;;;;;;;;;;5114356;28;20602;-67
2022/01/15 08:36:28;;;;;;;28.67;15.05;;;;;;;;;;5113694;28;20200;-67
2022/01/15 08:38:55;;;;;;;29.98;16.75;;;;;;;;;;5113353;28;20223;-67
2022/01/15 08:41:22;;;;;;;34.03;14.93;;;;;;;;;;5113608;28;20285;-67
2022/01/15 08:43:50;;;;;;;30.98;15.73;;;;;;;;;;5112797;28;20265;-67
2022/01/15 08:46:18;;;;;;;31.55;15.60;;;;;;;;;;5113549;28;20282;-67
2022/01/15 08:48:45;;;;;;;28.38;15.20;;;;;;;;;;5113545;28;20637;-67
2022/01/15 08:51:13;;;;;;;25.95;15.65;;;;;;;;;;5113930;28;20538;-66
2022/01/15 08:53:41;;;;;;;33.63;16.20;;;;;;;;;;5112759;28;20293;-67
2022/01/15 08:56:09;;;;;;;27.85;16.38;;;;;;;;;;5113589;28;20279;-66
2022/01/15 08:58:36;;;;;;;31.40;16.30;;;;;;;;;;5116930;28;20282;-66
2022/01/15 09:01:04;;;;;;;32.22;16.63;;;;;;;;;;5117227;28;20196;-66
2022/01/15 09:03:33;;;;;;;29.55;16.52;;;;;;;;;;5109633;28;20224;-67
2022/01/15 09:06:00;;;;;;;28.63;16.73;;;;;;;;;;5103001;28;20659;-66
2022/01/15 09:08:28;;;;;;;31.95;17.08;;;;;;;;;;5111498;28;20230;-67
2022/01/15 09:10:57;;;;;;;30.50;15.75;;;;;;;;;;5116774;28;20277;-67
2022/01/15 09:13:24;;;;;;;33.05;16.35;;;;;;;;;;5117665;28;20246;-67
2022/01/15 09:15:51;;;;;;;29.25;15.38;;;;;;;;;;5116919;28;20223;-67
2022/01/15 09:18:19;;;;;;;25.83;13.40;;;;;;;;;;5116421;28;20192;-67
2022/01/15 09:20:47;;;;;;;24.02;14.63;;;;;;;;;;5117508;28;20199;-67
2022/01/15 09:23:14;;;;;;;27.85;14.93;;;;;;;;;;5116385;28;20228;-67
2022/01/15 09:25:42;;;;;;;26.23;14.63;;;;;;;;;;5116305;28;20214;-67
2022/01/15 09:30:55;;;;;;;23.23;13.27;;;;;;;;;;5116538;28;20178;-66
2022/01/15 09:33:22;;;;;;;20.98;12.68;;;;;;;;;;5116351;28;20244;-66
2022/01/15 09:35:50;;;;;;;18.35;13.23;;;;;;;;;;5116570;28;20228;-66
2022/01/15 09:38:17;;;;;;;21.17;13.45;;;;;;;;;;5117713;28;20191;-68
2022/01/15 09:40:44;;;;;;;22.10;14.48;;;;;;;;;;5116251;28;20239;-67
2022/01/15 09:43:15;;;;;;;19.92;12.88;;;;;;;;;;5116460;28;20283;-66
2022/01/15 09:45:43;;;;;;;29.05;13.73;;;;;;;;;;5117222;28;20288;-68
2022/01/15 09:48:10;;;;;;;21.40;12.57;;;;;;;;;;5116284;28;20612;-67
2022/01/15 09:50:41;;;;;;;17.83;12.50;;;;;;;;;;5115807;28;20690;-67
2022/01/15 09:53:08;;;;;;;17.80;12.98;;;;;;;;;;5116472;28;20537;-67
2022/01/15 09:55:36;;;;;;;17.58;11.43;;;;;;;;;;5116885;28;20251;-68
2022/01/15 09:58:03;;;;;;;22.30;11.93;;;;;;;;;;5116556;28;20195;-67
2022/01/15 10:00:32;;;;;;;18.80;12.65;;;;;;;;;;5116676;28;20276;-67
2022/01/15 10:02:59;;;;;;;19.17;11.70;;;;;;;;;;5115552;28;20266;-67
2022/01/15 10:05:26;;;;;;;16.75;12.20;;;;;;;;;;5115598;28;20291;-67
2022/01/15 10:07:58;;;;;;;19.95;12.68;;;;;;;;;;5114828;28;20227;-68
2022/01/15 10:10:26;;;;;;;24.45;13.10;;;;;;;;;;5115893;28;20193;-68
2022/01/15 10:12:53;;;;;;;17.27;13.80;;;;;;;;;;5115874;28;20234;-68
2022/01/15 10:15:20;;;;;;;29.60;17.52;;;;;;;;;;5115900;28;20621;-69
2022/01/15 10:17:49;;;;;;;26.98;17.65;;;;;;;;;;5115719;28;20283;-67
2022/01/15 10:20:18;;;;;;;23.20;17.27;;;;;;;;;;5115504;28;20671;-68
2022/01/15 10:22:46;;;;;;;25.52;17.70;;;;;;;;;;5115877;28;20187;-67
2022/01/15 10:25:19;;;;;;;23.42;15.85;;;;;;;;;;5115997;28;20306;-67
2022/01/15 10:27:47;;;;;;;23.13;16.80;;;;;;;;;;5115470;28;20195;-67
2022/01/15 10:30:15;;;;;;;30.02;18.35;;;;;;;;;;5115183;28;20663;-68
2022/01/15 10:32:53;;;;;;;21.67;16.50;;;;;;;;;;5115451;28;20192;-67
2022/01/15 10:35:23;;;;;;;25.77;15.77;;;;;;;;;;5115672;28;20183;-67
2022/01/15 10:37:51;;;;;;;23.45;16.00;;;;;;;;;;5115406;28;20641;-67
2022/01/15 10:40:22;;;;;;;22.13;16.65;;;;;;;;;;5114787;28;20191;-68
2022/01/15 10:42:54;;;;;;;24.73;16.45;;;;;;;;;;5114911;28;20191;-67
2022/01/15 10:45:21;;;;;;;23.90;16.38;;;;;;;;;;5114699;28;20206;-67
2022/01/15 10:47:50;;;;;;;27.20;17.58;;;;;;;;;;5115166;28;20290;-69
2022/01/15 10:50:26;;;;;;;23.48;16.35;;;;;;;;;;5115058;28;20234;-68
2022/01/15 10:52:54;;;;;;;26.45;17.10;;;;;;;;;;5115090;28;20230;-69
2022/01/15 10:55:25;;;;;;;25.80;18.60;;;;;;;;;;5115041;28;20282;-67
2022/01/15 10:57:55;;;;;;;28.40;19.27;;;;;;;;;;5114667;28;20644;-68
2022/01/15 11:00:24;;;;;;;20.63;16.77;;;;;;;;;;5114418;28;20278;-68
2022/01/15 11:02:52;;;;;;;23.38;17.00;;;;;;;;;;5115001;28;20232;-67
2022/01/15 11:05:26;;;;;;;24.85;16.55;;;;;;;;;;5114161;28;20235;-67
2022/01/15 11:07:53;;;;;;;21.60;16.75;;;;;;;;;;5111529;28;20272;-68
2022/01/15 11:10:21;;;;;;;16.70;13.07;;;;;;;;;;5093800;28;20645;-69
2022/01/15 11:12:48;;;;;;;22.08;14.82;;;;;;;;;;5094880;28;20227;-68
2022/01/15 11:15:15;;;;;;;19.90;14.45;;;;;;;;;;5094250;28;20539;-68
2022/01/15 11:17:43;;;;;;;16.13;13.55;;;;;;;;;;5094420;28;20275;-68
2022/01/15 11:20:12;;;;;;;20.27;14.00;;;;;;;;;;5093408;28;20235;-70
2022/01/15 11:22:41;;;;;;;24.75;15.95;;;;;;;;;;5093767;28;20203;-70
2022/01/15 11:25:09;;;;;;;20.98;16.38;;;;;;;;;;5094008;28;20255;-71
2022/01/15 11:27:36;;;;;;;25.00;16.75;;;;;;;;;;5094388;28;20592;-68
2022/01/15 11:30:04;;;;;;;17.73;12.15;;;;;;;;;;5093736;28;20235;-68
2022/01/15 11:32:32;;;;;;;15.93;11.75;;;;;;;;;;5093805;28;20196;-68
2022/01/15 11:35:06;;;;;;;14.63;11.10;;;;;;;;;;5094076;28;20294;-68
2022/01/15 11:37:47;;;;;;;11.30;9.38;;;;;;;;;;5093617;28;20180;-68
2022/01/15 11:40:33;;;;;;;11.95;9.65;;;;;;;;;;5113976;28;20621;-68
2022/01/15 11:43:24;;;;;;;13.05;10.68;;;;;;;;;;5114776;28;20627;-68
2022/01/15 11:45:51;;;;;;;13.80;10.75;;;;;;;;;;5114024;28;20253;-68
2022/01/15 11:48:22;;;;;;;12.63;10.30;;;;;;;;;;5113828;28;20231;-69
2022/01/15 11:51:20;;;;;;;11.65;10.30;;;;;;;;;;5113749;28;20232;-68
2022/01/15 11:53:49;;;;;;;13.50;11.27;;;;;;;;;;5113789;28;20192;-69
2022/01/15 11:56:17;;;;;;;12.80;10.32;;;;;;;;;;5113764;28;20291;-68
2022/01/15 11:58:45;;;;;;;15.73;11.13;;;;;;;;;;5113741;28;20278;-68
2022/01/15 12:01:27;;;;;;;11.40;8.65;;;;;;;;;;5113708;28;20246;-69
2022/01/15 12:04:14;;;;;;;12.57;9.05;;;;;;;;;;5113441;28;20248;-69
2022/01/15 12:07:00;;;;;;;9.50;8.30;;;;;;;;;;5113643;28;20311;-68
2022/01/15 12:09:35;;;;;;;10.23;8.10;;;;;;;;;;5113554;28;20278;-69
2022/01/15 12:12:03;;;;;;;8.98;7.93;;;;;;;;;;5113957;28;20193;-68
2022/01/15 12:14:49;;;;;;;9.15;8.10;;;;;;;;;;5114000;28;20283;-70
2022/01/15 12:17:23;;;;;;;9.65;8.23;;;;;;;;;;5113889;28;20278;-69
2022/01/15 12:19:51;;;;;;;9.85;7.85;;;;;;;;;;5114386;28;20183;-69
2022/01/15 12:22:33;;;;;;;11.73;9.07;;;;;;;;;;5113835;28;20255;-70
2022/01/15 12:25:02;;;;;;;11.05;7.60;;;;;;;;;;5113786;28;20552;-69
2022/01/15 12:27:30;;;;;;;10.30;9.15;;;;;;;;;;5113433;28;20231;-69
2022/01/15 12:30:02;;;;;;;15.73;8.80;;;;;;;;;;5113688;28;20241;-69
2022/01/15 12:32:30;;;;;;;12.25;8.02;;;;;;;;;;5116267;28;20274;-69
2022/01/15 12:34:58;;;;;;;12.70;9.15;;;;;;;;;;5117702;28;20299;-68
2022/01/15 12:37:26;;;;;;;12.18;9.20;;;;;;;;;;5117740;28;20258;-68
2022/01/15 12:39:54;;;;;;;13.35;9.55;;;;;;;;;;5117373;28;20237;-69
2022/01/15 12:42:29;;;;;;;13.50;9.82;;;;;;;;;;5117652;28;20588;-67
2022/01/15 12:44:58;;;;;;;13.07;8.32;;;;;;;;;;5117548;28;20203;-69
2022/01/15 12:47:42;;;;;;;12.38;9.65;;;;;;;;;;5117549;28;20276;-69
2022/01/15 12:50:12;;;;;;;15.88;9.52;;;;;;;;;;5115905;28;20660;-68
2022/01/15 12:52:39;;;;;;;14.77;10.93;;;;;;;;;;5117474;28;20195;-68
2022/01/15 12:55:07;;;;;;;15.73;10.20;;;;;;;;;;5117305;28;20232;-68
2022/01/15 12:57:39;;;;;;;17.80;10.57;;;;;;;;;;5116791;28;20219;-68
2022/01/15 13:00:07;;;;;;;15.90;10.30;;;;;;;;;;5117322;28;20196;-68
2022/01/15 13:02:34;;;;;;;19.67;11.40;;;;;;;;;;5117366;28;20242;-69
2022/01/15 13:05:02;;;;;;;15.25;11.18;;;;;;;;;;5117177;28;20203;-69
2022/01/15 13:07:29;;;;;;;16.60;11.38;;;;;;;;;;5117181;28;20649;-69
2022/01/15 13:09:56;;;;;;;15.90;10.57;;;;;;;;;;5116777;28;20195;-69
2022/01/15 13:12:23;;;;;;;15.23;10.75;;;;;;;;;;5116725;28;20196;-69
2022/01/15 13:14:52;;;;;;;12.40;9.43;;;;;;;;;;5117004;28;20663;-69
2022/01/15 13:17:24;;;;;;;14.32;9.55;;;;;;;;;;5116952;28;20223;-69
2022/01/15 13:19:51;;;;;;;11.88;9.45;;;;;;;;;;5116622;28;20278;-70
2022/01/15 13:22:22;;;;;;;12.98;9.13;;;;;;;;;;5116899;28;20222;-69
2022/01/15 13:24:49;;;;;;;12.13;8.90;;;;;;;;;;5116754;28;20196;-68
2022/01/15 13:27:21;;;;;;;14.43;10.30;;;;;;;;;;5117146;28;20271;-69
2022/01/15 13:29:49;;;;;;;11.95;9.50;;;;;;;;;;5117227;28;20223;-69
2022/01/15 13:32:22;;;;;;;13.75;9.95;;;;;;;;;;5116376;28;20664;-68
2022/01/15 13:34:49;;;;;;;12.57;9.50;;;;;;;;;;5117025;28;20184;-68
2022/01/15 13:37:19;;;;;;;13.27;10.70;;;;;;;;;;5116178;28;20185;-68
2022/01/15 13:39:49;;;;;;;14.02;11.20;;;;;;;;;;5116182;28;20195;-68
2022/01/15 13:42:17;;;;;;;15.15;10.80;;;;;;;;;;5116167;28;20194;-69
2022/01/15 13:44:44;;;;;;;17.63;12.40;;;;;;;;;;5116084;28;20227;-68
2022/01/15 13:47:13;;;;;;;15.88;11.05;;;;;;;;;;5115940;28;20220;-69
2022/01/15 13:55:13;;;;;;;13.88;10.60;;;;;;;;;;5116116;28;20309;-68
2022/01/15 13:57:41;;;;;;;13.07;10.87;;;;;;;;;;5115550;28;20268;-68
2022/01/15 14:00:11;;;;;;;11.32;9.18;;;;;;;;;;5115746;28;20437;-68
2022/01/15 14:02:38;;;;;;;13.00;10.00;;;;;;;;;;5115664;28;20253;-69
2022/01/15 14:05:17;;;;;;;12.07;10.05;;;;;;;;;;5116493;28;20179;-68
2022/01/15 14:07:45;;;;;;;12.88;9.93;;;;;;;;;;5116311;28;20261;-68
2022/01/15 14:10:13;;;;;;;10.32;9.00;;;;;;;;;;5115507;28;20207;-68
2022/01/15 14:12:41;;;;;;;10.32;9.23;;;;;;;;;;5115581;28;20282;-68
2022/01/15 14:15:14;;;;;;;12.00;9.18;;;;;;;;;;5116030;28;20274;-67
2022/01/15 14:17:43;;;;;;;10.10;8.98;;;;;;;;;;5116578;28;20588;-68
2022/01/15 14:20:38;;;;;;;10.40;8.60;;;;;;;;;;5115795;28;20196;-69
2022/01/15 14:23:07;;;;;;;10.30;8.43;;;;;;;;;;5115334;28;20659;-68
2022/01/15 14:25:37;;;;;;;9.50;7.80;;;;;;;;;;5115179;28;20236;-69
2022/01/15 14:28:06;;;;;;;10.77;8.95;;;;;;;;;;5115359;28;20192;-69
2022/01/15 14:30:42;;;;;;;10.55;8.60;;;;;;;;;;5116048;28;20680;-69
2022/01/15 14:33:11;;;;;;;8.55;7.68;;;;;;;;;;5115844;28;20194;-69
2022/01/15 14:35:42;;;;;;;9.95;8.50;;;;;;;;;;5115261;28;20656;-68
2022/01/15 14:38:10;;;;;;;11.75;9.27;;;;;;;;;;5115754;28;20185;-68
2022/01/15 14:40:38;;;;;;;11.38;9.70;;;;;;;;;;5114981;28;20230;-68
2022/01/15 14:43:05;;;;;;;12.65;9.55;;;;;;;;;;5114972;28;20644;-68
2022/01/15 14:45:35;;;;;;;9.88;8.45;;;;;;;;;;5115071;28;20556;-67